Time;durP1;ratioP1;P1;durP2;ratioP2;P2;SDS_P1;SDS_P2;PMS_P1;PMS_P2;Temp;Humidity;BMP_temperature;BMP_pressure;BME280_temperature;BME280_humidity;BME280_pressure;Samples;Min_cycle;Max_cycle;Signal;HPM_P1;HPM_P2
2023/02/08 00:08:08;;;;;;;8.65;4.18;;;0.40;38.10;;;;;;20553266;28;20042;-42
2023/02/08 00:18:09;;;;;;;11.05;5.95;;;0.40;34.90;;;;;;20556343;28;20043;-42
2023/02/08 00:28:15;;;;;;;10.40;5.55;;;0.40;46.70;;;;;;20552540;28;20045;-42
2023/02/08 00:38:16;;;;;;;9.85;5.85;;;0.40;51.40;;;;;;20554645;28;20525;-42
2023/02/08 00:48:17;;;;;;;9.57;5.38;;;0.30;50.70;;;;;;20556042;28;20042;-43
2023/02/08 00:58:18;;;;;;;9.00;4.63;;;0.30;48.30;;;;;;20550214;28;20042;-42
2023/02/08 01:08:20;;;;;;;12.10;7.95;;;0.30;56.80;;;;;;20552298;28;20035;-43
2023/02/08 01:18:21;;;;;;;12.73;6.30;;;0.30;53.20;;;;;;20555718;28;20513;-43
2023/02/08 01:28:22;;;;;;;8.10;5.25;;;0.30;47.40;;;;;;20567781;28;20409;-43
2023/02/08 01:38:23;;;;;;;13.13;6.22;;;0.30;42.50;;;;;;20580501;28;20050;-42
2023/02/08 01:48:38;;;;;;;13.85;6.25;;;0.20;41.00;;;;;;20572221;28;20926;-43
2023/02/08 01:58:43;;;;;;;9.90;6.03;;;0.20;39.70;;;;;;20575642;28;20230;-42
2023/02/08 02:09:00;;;;;;;11.27;6.03;;;0.00;44.70;;;;;;20574688;28;20035;-43
2023/02/08 02:19:03;;;;;;;12.55;6.45;;;0.10;44.70;;;;;;20556824;28;20600;-42
2023/02/08 02:29:30;;;;;;;14.02;5.60;;;0.10;39.60;;;;;;20570821;28;20050;-42
2023/02/08 02:39:57;;;;;;;12.10;6.07;;;0.00;40.60;;;;;;20563050;28;20039;-42
2023/02/08 02:50:05;;;;;;;9.70;5.70;;;-0.20;35.80;;;;;;20571337;28;20034;-43
2023/02/08 03:00:09;;;;;;;13.57;6.38;;;-0.30;41.60;;;;;;20565199;28;20495;-42
2023/02/08 03:10:32;;;;;;;13.13;5.80;;;-0.40;43.30;;;;;;20572935;28;20043;-43
2023/02/08 03:20:37;;;;;;;10.05;4.35;;;-0.50;45.50;;;;;;20501786;28;20030;-43
2023/02/08 03:30:54;;;;;;;12.25;6.03;;;-0.50;41.80;;;;;;20542134;28;20039;-42
2023/02/08 03:40:58;;;;;;;11.63;5.57;;;-0.60;43.80;;;;;;20566487;28;20054;-42
2023/02/08 03:51:01;;;;;;;8.00;4.93;;;-0.60;42.10;;;;;;20555447;28;20565;-43
2023/02/08 04:01:15;;;;;;;10.45;5.43;;;-0.60;41.80;;;;;;20562610;28;20038;-43
2023/02/08 04:11:16;;;;;;;12.13;4.00;;;-0.70;45.30;;;;;;20558759;28;20043;-42
2023/02/08 04:21:17;;;;;;;11.32;5.88;;;-0.70;41.30;;;;;;20559727;28;20043;-42
2023/02/08 04:31:18;;;;;;;7.57;4.60;;;-0.70;39.50;;;;;;20559246;28;20053;-42
2023/02/08 04:41:19;;;;;;;13.98;5.85;;;-0.80;36.80;;;;;;20557119;28;20046;-44
2023/02/08 04:51:20;;;;;;;11.77;5.45;;;-0.80;36.70;;;;;;20568382;28;20038;-42
2023/02/08 05:01:21;;;;;;;14.00;6.57;;;-0.90;37.80;;;;;;20575579;28;20042;-42
2023/02/08 05:11:25;;;;;;;9.43;5.05;;;-0.90;39.90;;;;;;20572158;28;20046;-42
2023/02/08 05:21:26;;;;;;;13.23;4.30;;;-1.00;37.30;;;;;;20590328;28;20079;-44
2023/02/08 05:31:27;;;;;;;13.10;4.53;;;-1.00;35.50;;;;;;20579338;28;20402;-42
2023/02/08 05:41:28;;;;;;;9.55;4.93;;;-0.90;33.10;;;;;;20582727;28;20054;-42
2023/02/08 05:51:30;;;;;;;7.40;3.90;;;-1.00;34.10;;;;;;20586175;28;20491;-42
2023/02/08 06:01:31;;;;;;;12.82;4.85;;;-1.00;39.50;;;;;;20594156;28;20488;-43
2023/02/08 06:11:32;;;;;;;11.05;4.60;;;-1.00;40.70;;;;;;20590871;28;20042;-42
2023/02/08 06:21:33;;;;;;;8.38;5.35;;;-0.90;36.70;;;;;;20588102;28;20030;-42
2023/02/08 06:31:35;;;;;;;9.68;5.03;;;-0.90;30.80;;;;;;20587828;28;20053;-42
2023/02/08 06:41:36;;;;;;;9.88;4.57;;;-0.90;31.10;;;;;;20591331;28;20057;-42
2023/02/08 06:51:37;;;;;;;7.25;3.72;;;-0.90;31.80;;;;;;20584266;28;20046;-42
2023/02/08 07:01:39;;;;;;;9.23;4.30;;;-0.90;28.60;;;;;;20588323;28;20049;-42
2023/02/08 07:11:40;;;;;;;10.65;4.15;;;-0.90;24.80;;;;;;20581376;28;20042;-42
2023/02/08 07:21:41;;;;;;;11.23;5.38;;;-0.90;21.40;;;;;;20576172;28;20045;-43
2023/02/08 07:31:42;;;;;;;10.88;4.90;;;-0.70;11.80;;;;;;20580340;28;20038;-42
2023/02/08 07:41:43;;;;;;;9.40;4.90;;;-0.60;10.80;;;;;;20572888;28;20401;-42
2023/02/08 07:51:44;;;;;;;11.20;4.60;;;-0.50;7.00;;;;;;20583528;28;20079;-42
2023/02/08 08:01:45;;;;;;;12.35;5.25;;;-0.50;3.80;;;;;;20561118;28;20049;-42
2023/02/08 08:11:46;;;;;;;13.60;5.30;;;-0.40;3.20;;;;;;20559577;28;20057;-42
2023/02/08 08:21:47;;;;;;;12.45;4.38;;;-0.20;1.00;;;;;;20531012;28;20597;-42
2023/02/08 08:31:50;;;;;;;11.57;5.07;;;0.00;1.00;;;;;;20546604;28;20403;-42
2023/02/08 08:41:52;;;;;;;10.32;4.88;;;0.10;1.00;;;;;;20559377;28;20077;-42
2023/02/08 08:51:54;;;;;;;9.18;4.13;;;0.40;1.00;;;;;;20558988;28;20050;-42
2023/02/08 09:01:55;;;;;;;10.32;4.25;;;0.70;1.00;;;;;;20547732;28;20441;-42
2023/02/08 09:11:56;;;;;;;10.90;5.18;;;1.10;1.00;;;;;;20565511;28;20045;-42
2023/02/08 09:21:59;;;;;;;6.38;3.70;;;1.40;1.00;;;;;;20543540;28;20046;-42
2023/02/08 09:32:00;;;;;;;11.27;4.93;;;1.80;1.00;;;;;;20545787;28;20046;-42
2023/02/08 09:42:36;;;;;;;8.68;4.93;;;2.00;1.00;;;;;;20545456;28;20058;-42
2023/02/08 09:52:43;;;;;;;7.78;3.88;;;2.40;1.00;;;;;;20546290;28;20513;-42
2023/02/08 10:02:47;;;;;;;6.80;3.73;;;2.60;1.00;;;;;;20561491;28;20027;-42
2023/02/08 10:12:51;;;;;;;13.27;4.65;;;2.80;1.00;;;;;;20559767;28;20046;-42
2023/02/08 10:23:22;;;;;;;6.13;3.53;;;3.00;1.00;;;;;;20555986;28;20046;-42
2023/02/08 10:33:36;;;;;;;8.20;4.05;;;3.40;1.00;;;;;;20561308;28;20234;-42
2023/02/08 10:43:45;;;;;;;6.65;2.72;;;3.80;1.00;;;;;;20530070;28;20605;-42
2023/02/08 10:53:46;;;;;;;5.47;3.22;;;4.20;1.00;;;;;;20562457;28;20034;-42
2023/02/08 11:04:04;;;;;;;6.63;3.45;;;4.90;1.00;;;;;;20560537;28;20038;-42
2023/02/08 11:14:16;;;;;;;6.88;3.55;;;5.60;1.00;;;;;;20557257;28;20544;-42
2023/02/08 11:24:34;;;;;;;5.60;3.15;;;5.80;1.00;;;;;;20561604;28;20521;-42
2023/02/08 11:34:38;;;;;;;6.18;3.50;;;6.50;1.00;;;;;;20507988;28;21505;-41
2023/02/08 11:44:43;;;;;;;8.40;2.97;;;6.90;1.00;;;;;;20560456;28;20049;-42
2023/02/08 11:54:44;;;;;;;4.70;3.20;;;7.80;1.00;;;;;;20545292;28;20140;-42
2023/02/08 12:04:45;;;;;;;7.88;2.85;;;8.20;1.00;;;;;;20548943;28;20044;-42
2023/02/08 12:15:17;;;;;;;4.95;3.13;;;8.80;1.00;;;;;;20544372;28;20050;-41
2023/02/08 12:25:39;;;;;;;6.63;3.25;;;8.70;1.00;;;;;;20565084;28;20043;-41
2023/02/08 12:36:06;;;;;;;9.23;3.28;;;8.50;1.00;;;;;;20554039;28;21541;-41
2023/02/08 12:46:32;;;;;;;10.02;4.07;;;8.90;1.00;;;;;;20545576;28;20422;-41
2023/02/08 12:56:39;;;;;;;5.78;2.50;;;8.70;1.00;;;;;;20552443;28;20069;-41
2023/02/08 13:06:43;;;;;;;7.30;2.87;;;9.40;1.00;;;;;;20557985;28;20611;-41
2023/02/08 13:16:52;;;;;;;4.32;2.50;;;9.90;1.00;;;;;;20547574;28;20435;-41
2023/02/08 13:26:53;;;;;;;4.18;2.15;;;10.00;1.00;;;;;;20550755;28;20529;-42
2023/02/08 13:36:58;;;;;;;4.03;2.75;;;10.00;1.00;;;;;;20558965;28;20231;-41
2023/02/08 13:47:00;;;;;;;5.43;2.53;;;9.60;1.00;;;;;;20559951;28;20042;-41
2023/02/08 13:57:01;;;;;;;5.05;2.53;;;10.00;1.00;;;;;;20559240;28;20038;-40
2023/02/08 14:07:11;;;;;;;4.85;2.30;;;9.30;1.00;;;;;;20554789;28;20501;-41
2023/02/08 14:17:42;;;;;;;6.63;2.30;;;9.10;1.00;;;;;;20554422;28;20038;-40
2023/02/08 14:27:51;;;;;;;3.50;2.70;;;8.70;1.00;;;;;;20544442;28;20476;-41
2023/02/08 14:38:23;;;;;;;6.63;2.35;;;8.40;1.00;;;;;;20569811;28;20038;-41
2023/02/08 14:48:44;;;;;;;5.28;2.55;;;8.70;1.00;;;;;;20564581;28;20474;-41
2023/02/08 14:59:00;;;;;;;4.63;2.58;;;9.40;1.00;;;;;;20572906;28;20073;-41
2023/02/08 15:09:02;;;;;;;3.42;2.05;;;9.50;1.00;;;;;;20575874;28;20402;-40
2023/02/08 15:19:06;;;;;;;6.60;1.98;;;8.80;1.00;;;;;;20567676;28;20050;-40
2023/02/08 15:29:18;;;;;;;4.35;2.00;;;8.40;1.00;;;;;;20572473;28;20037;-40
2023/02/08 15:39:28;;;;;;;3.45;1.35;;;8.00;1.00;;;;;;20580911;28;20038;-40
2023/02/08 15:49:36;;;;;;;4.07;1.90;;;7.60;1.00;;;;;;20578384;28;20034;-41
2023/02/08 15:59:39;;;;;;;3.92;2.05;;;7.50;1.00;;;;;;20526566;28;20081;-41
2023/02/08 16:09:45;;;;;;;5.75;2.58;;;7.20;1.00;;;;;;20565889;28;20046;-41
2023/02/08 16:19:50;;;;;;;4.87;2.57;;;7.20;1.00;;;;;;20559043;28;20046;-41
2023/02/08 16:29:52;;;;;;;5.60;2.42;;;7.10;1.00;;;;;;20575404;28;20034;-41
2023/02/08 16:39:57;;;;;;;5.97;2.03;;;6.80;1.00;;;;;;20572736;28;20515;-41
2023/02/08 16:49:58;;;;;;;7.78;3.85;;;6.40;1.00;;;;;;20541695;28;20038;-41
2023/02/08 16:59:59;;;;;;;6.50;3.20;;;5.80;1.00;;;;;;20552834;28;20054;-41
2023/02/08 17:10:01;;;;;;;3.67;2.17;;;5.50;1.00;;;;;;20580337;28;20034;-40
2023/02/08 17:20:02;;;;;;;7.88;3.25;;;5.20;1.00;;;;;;20583549;28;20046;-41
2023/02/08 17:30:03;;;;;;;5.72;2.70;;;5.20;1.00;;;;;;20565873;28;20030;-40
2023/02/08 17:40:05;;;;;;;6.45;3.35;;;5.00;1.00;;;;;;20560081;28;20490;-41
2023/02/08 17:50:08;;;;;;;6.00;3.53;;;4.80;1.00;;;;;;20570295;28;20042;-41
2023/02/08 18:00:13;;;;;;;6.05;2.45;;;4.70;1.00;;;;;;20552025;28;20272;-40
2023/02/08 18:10:15;;;;;;;9.63;3.55;;;4.90;1.00;;;;;;20549778;28;20065;-41
2023/02/08 18:20:17;;;;;;;7.85;3.88;;;4.90;1.00;;;;;;20566434;28;20041;-40
2023/02/08 18:30:19;;;;;;;4.70;2.67;;;5.00;1.00;;;;;;20569193;28;20641;-40
2023/02/08 18:40:20;;;;;;;3.80;2.53;;;5.00;1.00;;;;;;20567756;28;20275;-40
2023/02/08 18:50:21;;;;;;;9.07;3.25;;;5.00;1.00;;;;;;20555643;28;20042;-41
2023/02/08 19:00:22;;;;;;;5.00;2.70;;;4.80;1.00;;;;;;20548028;28;20050;-41
2023/02/08 19:10:23;;;;;;;5.72;2.63;;;4.80;1.00;;;;;;20549399;28;20643;-41
2023/02/08 19:20:24;;;;;;;7.85;3.55;;;4.70;1.00;;;;;;20554616;28;20421;-41
2023/02/08 19:30:25;;;;;;;4.95;2.40;;;4.60;1.00;;;;;;20551792;28;20277;-40
2023/02/08 19:40:26;;;;;;;9.23;3.28;;;4.60;1.00;;;;;;20539821;28;20075;-41
2023/02/08 19:50:27;;;;;;;5.70;2.58;;;4.40;1.00;;;;;;20553040;28;20338;-40
2023/02/08 20:00:28;;;;;;;5.10;2.38;;;4.40;1.00;;;;;;20547303;28;20908;-41
2023/02/08 20:10:29;;;;;;;7.95;3.53;;;4.20;1.00;;;;;;20540607;28;20371;-41
2023/02/08 20:20:30;;;;;;;9.05;2.67;;;4.20;1.00;;;;;;20542116;28;20046;-41
2023/02/08 20:30:31;;;;;;;4.43;2.05;;;4.20;1.00;;;;;;20544811;28;21461;-40
2023/02/08 20:40:32;;;;;;;5.22;2.20;;;4.00;1.00;;;;;;20541703;28;20264;-40
2023/02/08 20:50:33;;;;;;;5.30;2.10;;;4.00;1.00;;;;;;20544027;28;20042;-41
2023/02/08 21:00:34;;;;;;;4.97;2.28;;;3.80;1.00;;;;;;20542812;28;20043;-41
2023/02/08 21:10:36;;;;;;;7.07;3.17;;;3.50;1.00;;;;;;20538325;28;20031;-40
2023/02/08 21:20:38;;;;;;;7.95;4.30;;;3.30;1.00;;;;;;20539373;28;20038;-41
2023/02/08 21:30:39;;;;;;;9.13;3.60;;;3.00;1.00;;;;;;20544355;28;20303;-40
2023/02/08 21:40:40;;;;;;;7.28;2.75;;;2.90;1.00;;;;;;20537493;28;20557;-41
2023/02/08 22:01:01;;;;;;;5.20;2.65;;;3.20;1.00;;;;;;20569495;28;20050;-40
2023/02/08 22:11:05;;;;;;;5.68;2.88;;;3.10;1.00;;;;;;20565457;28;20061;-41
2023/02/08 22:21:07;;;;;;;5.18;2.50;;;3.20;1.00;;;;;;20558123;28;22943;-40
2023/02/08 22:31:08;;;;;;;4.88;2.90;;;3.20;1.00;;;;;;20569846;28;20069;-40
2023/02/08 22:41:15;;;;;;;3.85;2.03;;;3.10;1.00;;;;;;20558317;28;20391;-41
2023/02/08 22:51:18;;;;;;;6.00;3.15;;;3.10;1.00;;;;;;20556746;28;20034;-40
2023/02/08 23:01:19;;;;;;;6.72;3.20;;;2.90;1.00;;;;;;20556355;28;20354;-40
2023/02/08 23:11:20;;;;;;;5.43;3.03;;;2.90;1.00;;;;;;20559511;28;20050;-41
2023/02/08 23:21:21;;;;;;;7.40;2.75;;;2.80;1.00;;;;;;20555026;28;20044;-41
2023/02/08 23:31:22;;;;;;;4.85;3.42;;;2.60;1.00;;;;;;20545442;28;20041;-41
2023/02/08 23:41:23;;;;;;;7.05;2.88;;;2.60;1.00;;;;;;20559539;28;20046;-40
2023/02/08 23:51:25;;;;;;;8.05;3.00;;;2.40;1.00;;;;;;20558947;28;20034;-41
